sensor_id;sensor_type;location;lat;lon;timestamp;P1;durP1;ratioP1;P2;durP2;ratioP2
37087;SDS011;23002;52.676;6.432;2023-04-01T00:01:29;5.03;;;1.88;;
37087;SDS011;23002;52.676;6.432;2023-04-01T00:03:56;3.20;;;1.88;;
37087;SDS011;23002;52.676;6.432;2023-04-01T00:06:23;3.47;;;1.92;;
37087;SDS011;23002;52.676;6.432;2023-04-01T00:08:51;3.83;;;1.90;;
37087;SDS011;23002;52.676;6.432;2023-04-01T00:11:20;4.53;;;1.70;;
37087;SDS011;23002;52.676;6.432;2023-04-01T00:13:47;5.28;;;2.50;;
37087;SDS011;23002;52.676;6.432;2023-04-01T00:16:15;3.05;;;1.40;;
37087;SDS011;23002;52.676;6.432;2023-04-01T00:18:47;6.03;;;1.85;;
37087;SDS011;23002;52.676;6.432;2023-04-01T00:21:15;3.60;;;1.80;;
37087;SDS011;23002;52.676;6.432;2023-04-01T00:23:42;3.25;;;1.63;;
37087;SDS011;23002;52.676;6.432;2023-04-01T00:26:09;6.00;;;2.42;;
37087;SDS011;23002;52.676;6.432;2023-04-01T00:28:38;3.38;;;1.58;;
37087;SDS011;23002;52.676;6.432;2023-04-01T00:31:06;4.40;;;2.25;;
37087;SDS011;23002;52.676;6.432;2023-04-01T00:33:33;2.75;;;1.70;;
37087;SDS011;23002;52.676;6.432;2023-04-01T00:36:05;4.63;;;2.22;;
37087;SDS011;23002;52.676;6.432;2023-04-01T00:38:32;5.95;;;1.85;;
37087;SDS011;23002;52.676;6.432;2023-04-01T00:40:59;3.35;;;1.65;;
37087;SDS011;23002;52.676;6.432;2023-04-01T00:43:26;4.40;;;2.22;;
37087;SDS011;23002;52.676;6.432;2023-04-01T00:45:54;4.90;;;1.75;;
37087;SDS011;23002;52.676;6.432;2023-04-01T00:48:31;5.50;;;1.38;;
37087;SDS011;23002;52.676;6.432;2023-04-01T00:53:28;7.18;;;1.80;;
37087;SDS011;23002;52.676;6.432;2023-04-01T00:55:58;6.75;;;2.53;;
37087;SDS011;23002;52.676;6.432;2023-04-01T00:58:27;5.60;;;1.77;;
37087;SDS011;23002;52.676;6.432;2023-04-01T01:00:56;5.20;;;2.10;;
37087;SDS011;23002;52.676;6.432;2023-04-01T01:03:25;5.72;;;2.33;;
37087;SDS011;23002;52.676;6.432;2023-04-01T01:08:33;4.10;;;2.10;;
37087;SDS011;23002;52.676;6.432;2023-04-01T01:11:05;4.25;;;1.90;;
37087;SDS011;23002;52.676;6.432;2023-04-01T01:13:34;4.50;;;2.22;;
37087;SDS011;23002;52.676;6.432;2023-04-01T01:31:50;5.55;;;2.28;;
37087;SDS011;23002;52.676;6.432;2023-04-01T01:37:01;4.00;;;1.98;;
37087;SDS011;23002;52.676;6.432;2023-04-01T01:39:30;7.85;;;2.38;;
37087;SDS011;23002;52.676;6.432;2023-04-01T01:41:58;3.92;;;2.10;;
37087;SDS011;23002;52.676;6.432;2023-04-01T01:44:28;5.18;;;1.92;;
37087;SDS011;23002;52.676;6.432;2023-04-01T01:46:56;6.50;;;2.10;;
37087;SDS011;23002;52.676;6.432;2023-04-01T01:49:24;4.03;;;1.73;;
37087;SDS011;23002;52.676;6.432;2023-04-01T01:51:51;6.78;;;2.03;;
37087;SDS011;23002;52.676;6.432;2023-04-01T01:54:18;4.63;;;2.17;;
37087;SDS011;23002;52.676;6.432;2023-04-01T01:56:46;5.47;;;1.88;;
37087;SDS011;23002;52.676;6.432;2023-04-01T01:59:15;4.50;;;2.20;;
37087;SDS011;23002;52.676;6.432;2023-04-01T02:01:43;8.10;;;2.03;;
37087;SDS011;23002;52.676;6.432;2023-04-01T02:04:12;3.28;;;1.60;;
37087;SDS011;23002;52.676;6.432;2023-04-01T02:06:42;6.53;;;2.80;;
37087;SDS011;23002;52.676;6.432;2023-04-01T02:09:11;6.05;;;2.33;;
37087;SDS011;23002;52.676;6.432;2023-04-01T02:14:07;5.30;;;2.67;;
37087;SDS011;23002;52.676;6.432;2023-04-01T02:19:23;4.78;;;1.58;;
37087;SDS011;23002;52.676;6.432;2023-04-01T02:21:53;3.67;;;1.48;;
37087;SDS011;23002;52.676;6.432;2023-04-01T02:24:22;4.35;;;1.70;;
37087;SDS011;23002;52.676;6.432;2023-04-01T02:26:50;5.22;;;2.22;;
37087;SDS011;23002;52.676;6.432;2023-04-01T02:29:19;5.68;;;2.75;;
37087;SDS011;23002;52.676;6.432;2023-04-01T02:31:47;6.35;;;2.03;;
37087;SDS011;23002;52.676;6.432;2023-04-01T02:34:14;4.05;;;2.00;;
37087;SDS011;23002;52.676;6.432;2023-04-01T02:36:42;5.00;;;2.20;;
37087;SDS011;23002;52.676;6.432;2023-04-01T02:39:09;5.75;;;2.00;;
37087;SDS011;23002;52.676;6.432;2023-04-01T02:41:42;4.60;;;1.85;;
37087;SDS011;23002;52.676;6.432;2023-04-01T02:44:11;2.95;;;1.65;;
37087;SDS011;23002;52.676;6.432;2023-04-01T02:46:38;6.07;;;1.77;;
37087;SDS011;23002;52.676;6.432;2023-04-01T02:49:05;4.97;;;2.13;;
37087;SDS011;23002;52.676;6.432;2023-04-01T02:51:33;6.72;;;2.53;;
37087;SDS011;23002;52.676;6.432;2023-04-01T02:54:00;3.95;;;2.08;;
37087;SDS011;23002;52.676;6.432;2023-04-01T02:56:27;5.13;;;2.38;;
37087;SDS011;23002;52.676;6.432;2023-04-01T02:58:55;4.80;;;2.10;;
37087;SDS011;23002;52.676;6.432;2023-04-01T03:01:22;4.18;;;1.77;;
37087;SDS011;23002;52.676;6.432;2023-04-01T03:03:51;5.28;;;2.30;;
37087;SDS011;23002;52.676;6.432;2023-04-01T03:06:18;4.53;;;1.80;;
37087;SDS011;23002;52.676;6.432;2023-04-01T03:08:45;4.93;;;2.40;;
37087;SDS011;23002;52.676;6.432;2023-04-01T03:11:12;6.57;;;2.25;;
37087;SDS011;23002;52.676;6.432;2023-04-01T03:13:39;4.65;;;2.42;;
37087;SDS011;23002;52.676;6.432;2023-04-01T03:16:06;4.50;;;1.90;;
37087;SDS011;23002;52.676;6.432;2023-04-01T03:18:33;5.45;;;2.38;;
37087;SDS011;23002;52.676;6.432;2023-04-01T03:21:13;3.78;;;2.00;;
37087;SDS011;23002;52.676;6.432;2023-04-01T03:23:41;4.82;;;1.70;;
37087;SDS011;23002;52.676;6.432;2023-04-01T03:26:08;4.22;;;1.67;;
37087;SDS011;23002;52.676;6.432;2023-04-01T03:28:35;5.57;;;2.15;;
37087;SDS011;23002;52.676;6.432;2023-04-01T03:31:02;4.70;;;1.80;;
37087;SDS011;23002;52.676;6.432;2023-04-01T03:33:29;4.50;;;1.80;;
37087;SDS011;23002;52.676;6.432;2023-04-01T03:35:56;4.75;;;2.22;;
37087;SDS011;23002;52.676;6.432;2023-04-01T03:38:23;4.30;;;2.15;;
37087;SDS011;23002;52.676;6.432;2023-04-01T03:40:51;4.55;;;2.60;;
37087;SDS011;23002;52.676;6.432;2023-04-01T03:43:18;5.43;;;2.42;;
37087;SDS011;23002;52.676;6.432;2023-04-01T03:45:45;5.10;;;2.53;;
37087;SDS011;23002;52.676;6.432;2023-04-01T03:48:13;4.72;;;2.10;;
37087;SDS011;23002;52.676;6.432;2023-04-01T03:50:41;6.28;;;2.35;;
37087;SDS011;23002;52.676;6.432;2023-04-01T03:53:08;5.65;;;1.98;;
37087;SDS011;23002;52.676;6.432;2023-04-01T03:55:35;5.85;;;1.58;;
37087;SDS011;23002;52.676;6.432;2023-04-01T03:58:03;4.60;;;2.22;;
37087;SDS011;23002;52.676;6.432;2023-04-01T04:00:30;5.70;;;2.55;;
37087;SDS011;23002;52.676;6.432;2023-04-01T04:02:58;4.60;;;2.17;;
37087;SDS011;23002;52.676;6.432;2023-04-01T04:05:25;5.88;;;2.05;;
37087;SDS011;23002;52.676;6.432;2023-04-01T04:07:53;6.70;;;2.95;;
37087;SDS011;23002;52.676;6.432;2023-04-01T04:10:20;5.60;;;2.22;;
37087;SDS011;23002;52.676;6.432;2023-04-01T04:12:49;5.22;;;2.10;;
37087;SDS011;23002;52.676;6.432;2023-04-01T04:15:16;5.20;;;2.20;;
37087;SDS011;23002;52.676;6.432;2023-04-01T04:17:46;7.38;;;2.85;;
37087;SDS011;23002;52.676;6.432;2023-04-01T04:20:14;6.20;;;2.58;;
37087;SDS011;23002;52.676;6.432;2023-04-01T04:22:41;5.65;;;2.72;;
37087;SDS011;23002;52.676;6.432;2023-04-01T04:25:08;7.00;;;2.70;;
37087;SDS011;23002;52.676;6.432;2023-04-01T04:27:35;5.80;;;2.40;;
37087;SDS011;23002;52.676;6.432;2023-04-01T04:30:02;5.72;;;3.03;;
37087;SDS011;23002;52.676;6.432;2023-04-01T04:32:30;7.78;;;2.85;;
37087;SDS011;23002;52.676;6.432;2023-04-01T04:34:57;6.80;;;2.58;;
37087;SDS011;23002;52.676;6.432;2023-04-01T04:37:24;5.93;;;2.78;;
37087;SDS011;23002;52.676;6.432;2023-04-01T04:39:51;6.05;;;2.97;;
37087;SDS011;23002;52.676;6.432;2023-04-01T04:42:19;6.13;;;3.00;;
37087;SDS011;23002;52.676;6.432;2023-04-01T04:44:46;5.32;;;2.60;;
37087;SDS011;23002;52.676;6.432;2023-04-01T04:47:13;6.05;;;2.63;;
37087;SDS011;23002;52.676;6.432;2023-04-01T04:49:40;7.55;;;2.72;;
37087;SDS011;23002;52.676;6.432;2023-04-01T04:52:07;5.32;;;2.55;;
37087;SDS011;23002;52.676;6.432;2023-04-01T04:54:34;6.60;;;3.00;;
37087;SDS011;23002;52.676;6.432;2023-04-01T04:57:01;6.55;;;2.85;;
37087;SDS011;23002;52.676;6.432;2023-04-01T04:59:29;5.93;;;2.80;;
37087;SDS011;23002;52.676;6.432;2023-04-01T05:01:57;5.28;;;2.25;;
37087;SDS011;23002;52.676;6.432;2023-04-01T05:04:24;6.93;;;2.17;;
37087;SDS011;23002;52.676;6.432;2023-04-01T05:06:51;7.15;;;3.33;;
37087;SDS011;23002;52.676;6.432;2023-04-01T05:09:18;6.22;;;3.08;;
37087;SDS011;23002;52.676;6.432;2023-04-01T05:11:45;5.22;;;2.60;;
37087;SDS011;23002;52.676;6.432;2023-04-01T05:14:13;7.28;;;3.30;;
37087;SDS011;23002;52.676;6.432;2023-04-01T05:16:40;6.30;;;2.55;;
37087;SDS011;23002;52.676;6.432;2023-04-01T05:19:08;6.85;;;2.95;;
37087;SDS011;23002;52.676;6.432;2023-04-01T05:21:35;7.38;;;3.42;;
37087;SDS011;23002;52.676;6.432;2023-04-01T05:24:02;7.28;;;3.00;;
37087;SDS011;23002;52.676;6.432;2023-04-01T05:26:29;9.15;;;2.75;;
37087;SDS011;23002;52.676;6.432;2023-04-01T05:28:56;6.38;;;3.30;;
37087;SDS011;23002;52.676;6.432;2023-04-01T05:31:23;5.05;;;2.28;;
37087;SDS011;23002;52.676;6.432;2023-04-01T05:33:51;6.07;;;3.17;;
37087;SDS011;23002;52.676;6.432;2023-04-01T05:36:20;7.68;;;3.55;;
37087;SDS011;23002;52.676;6.432;2023-04-01T05:38:47;6.68;;;2.88;;
37087;SDS011;23002;52.676;6.432;2023-04-01T05:41:15;7.22;;;2.25;;
37087;SDS011;23002;52.676;6.432;2023-04-01T05:43:42;5.72;;;2.55;;
37087;SDS011;23002;52.676;6.432;2023-04-01T05:46:09;6.60;;;2.97;;
37087;SDS011;23002;52.676;6.432;2023-04-01T05:48:36;7.47;;;3.47;;
37087;SDS011;23002;52.676;6.432;2023-04-01T05:51:03;6.07;;;2.40;;
37087;SDS011;23002;52.676;6.432;2023-04-01T05:53:34;6.50;;;1.90;;
37087;SDS011;23002;52.676;6.432;2023-04-01T05:56:02;4.95;;;2.47;;
37087;SDS011;23002;52.676;6.432;2023-04-01T05:58:29;6.85;;;3.30;;
37087;SDS011;23002;52.676;6.432;2023-04-01T06:01:00;6.57;;;2.50;;
37087;SDS011;23002;52.676;6.432;2023-04-01T06:03:37;5.45;;;2.45;;
37087;SDS011;23002;52.676;6.432;2023-04-01T06:06:08;6.18;;;2.28;;
37087;SDS011;23002;52.676;6.432;2023-04-01T06:08:42;5.78;;;2.40;;
37087;SDS011;23002;52.676;6.432;2023-04-01T06:14:03;4.45;;;1.98;;
37087;SDS011;23002;52.676;6.432;2023-04-01T06:19:09;5.03;;;2.47;;
37087;SDS011;23002;52.676;6.432;2023-04-01T06:21:48;4.13;;;1.92;;
37087;SDS011;23002;52.676;6.432;2023-04-01T06:40:26;2.45;;;0.80;;
37087;SDS011;23002;52.676;6.432;2023-04-01T06:48:12;2.83;;;1.10;;
37087;SDS011;23002;52.676;6.432;2023-04-01T06:50:47;2.60;;;0.98;;
37087;SDS011;23002;52.676;6.432;2023-04-01T06:53:25;2.88;;;1.10;;
37087;SDS011;23002;52.676;6.432;2023-04-01T06:55:57;3.42;;;1.23;;
37087;SDS011;23002;52.676;6.432;2023-04-01T06:58:27;3.78;;;1.60;;
37087;SDS011;23002;52.676;6.432;2023-04-01T07:00:57;4.25;;;1.55;;
37087;SDS011;23002;52.676;6.432;2023-04-01T07:03:34;3.58;;;1.60;;
37087;SDS011;23002;52.676;6.432;2023-04-01T07:06:04;4.20;;;2.05;;
37087;SDS011;23002;52.676;6.432;2023-04-01T07:08:33;7.88;;;3.08;;
37087;SDS011;23002;52.676;6.432;2023-04-01T07:11:03;6.00;;;2.50;;
37087;SDS011;23002;52.676;6.432;2023-04-01T07:13:32;6.22;;;2.20;;
37087;SDS011;23002;52.676;6.432;2023-04-01T07:18:42;7.85;;;2.65;;
37087;SDS011;23002;52.676;6.432;2023-04-01T07:21:10;8.75;;;2.72;;
37087;SDS011;23002;52.676;6.432;2023-04-01T07:23:42;8.13;;;2.72;;
37087;SDS011;23002;52.676;6.432;2023-04-01T07:26:16;12.68;;;3.15;;
37087;SDS011;23002;52.676;6.432;2023-04-01T07:28:43;9.00;;;3.45;;
37087;SDS011;23002;52.676;6.432;2023-04-01T07:31:15;8.10;;;2.53;;
37087;SDS011;23002;52.676;6.432;2023-04-01T07:49:17;5.38;;;2.30;;
37087;SDS011;23002;52.676;6.432;2023-04-01T07:51:58;7.20;;;2.75;;
37087;SDS011;23002;52.676;6.432;2023-04-01T07:54:28;6.50;;;2.88;;
37087;SDS011;23002;52.676;6.432;2023-04-01T07:57:06;9.02;;;3.17;;
37087;SDS011;23002;52.676;6.432;2023-04-01T07:59:51;7.45;;;3.00;;
37087;SDS011;23002;52.676;6.432;2023-04-01T08:02:34;8.75;;;3.15;;
37087;SDS011;23002;52.676;6.432;2023-04-01T08:05:14;6.53;;;2.97;;
37087;SDS011;23002;52.676;6.432;2023-04-01T08:10:22;7.32;;;2.97;;
37087;SDS011;23002;52.676;6.432;2023-04-01T08:12:58;7.50;;;3.38;;
37087;SDS011;23002;52.676;6.432;2023-04-01T08:15:27;6.72;;;2.38;;
37087;SDS011;23002;52.676;6.432;2023-04-01T08:20:51;6.60;;;3.10;;
37087;SDS011;23002;52.676;6.432;2023-04-01T08:23:33;6.75;;;2.95;;
37087;SDS011;23002;52.676;6.432;2023-04-01T08:28:41;6.43;;;3.15;;
37087;SDS011;23002;52.676;6.432;2023-04-01T08:31:16;5.95;;;2.50;;
37087;SDS011;23002;52.676;6.432;2023-04-01T08:33:44;8.70;;;3.17;;
37087;SDS011;23002;52.676;6.432;2023-04-01T08:36:19;6.43;;;2.58;;
37087;SDS011;23002;52.676;6.432;2023-04-01T08:49:09;5.80;;;2.25;;
37087;SDS011;23002;52.676;6.432;2023-04-01T08:57:00;6.05;;;2.25;;
37087;SDS011;23002;52.676;6.432;2023-04-01T09:20:24;5.60;;;2.05;;
37087;SDS011;23002;52.676;6.432;2023-04-01T09:25:48;4.65;;;2.08;;
37087;SDS011;23002;52.676;6.432;2023-04-01T09:28:19;6.72;;;1.85;;
37087;SDS011;23002;52.676;6.432;2023-04-01T09:30:55;3.15;;;1.23;;
37087;SDS011;23002;52.676;6.432;2023-04-01T09:33:37;3.65;;;1.33;;
37087;SDS011;23002;52.676;6.432;2023-04-01T09:36:12;3.83;;;1.10;;
37087;SDS011;23002;52.676;6.432;2023-04-01T09:41:31;2.53;;;1.17;;
37087;SDS011;23002;52.676;6.432;2023-04-01T09:44:13;2.72;;;1.45;;
37087;SDS011;23002;52.676;6.432;2023-04-01T09:46:49;2.22;;;0.88;;
37087;SDS011;23002;52.676;6.432;2023-04-01T09:52:20;1.80;;;0.70;;
37087;SDS011;23002;52.676;6.432;2023-04-01T10:38:08;3.08;;;1.38;;
37087;SDS011;23002;52.676;6.432;2023-04-01T10:43:23;2.95;;;1.35;;
37087;SDS011;23002;52.676;6.432;2023-04-01T10:51:25;2.70;;;1.15;;
37087;SDS011;23002;52.676;6.432;2023-04-01T10:56:39;2.67;;;1.40;;
37087;SDS011;23002;52.676;6.432;2023-04-01T11:04:18;2.95;;;1.58;;
37087;SDS011;23002;52.676;6.432;2023-04-01T11:17:55;4.45;;;1.55;;
37087;SDS011;23002;52.676;6.432;2023-04-01T11:25:50;3.63;;;1.60;;
37087;SDS011;23002;52.676;6.432;2023-04-01T11:28:35;3.80;;;1.90;;
37087;SDS011;23002;52.676;6.432;2023-04-01T11:33:39;3.40;;;1.40;;
37087;SDS011;23002;52.676;6.432;2023-04-01T11:38:47;4.32;;;1.92;;
37087;SDS011;23002;52.676;6.432;2023-04-01T11:49:15;3.58;;;1.52;;
37087;SDS011;23002;52.676;6.432;2023-04-01T11:52:06;3.55;;;1.85;;
37087;SDS011;23002;52.676;6.432;2023-04-01T11:54:40;4.13;;;1.80;;
37087;SDS011;23002;52.676;6.432;2023-04-01T12:02:40;6.85;;;2.20;;
37087;SDS011;23002;52.676;6.432;2023-04-01T12:05:19;3.53;;;2.10;;
37087;SDS011;23002;52.676;6.432;2023-04-01T12:07:55;4.18;;;1.83;;
37087;SDS011;23002;52.676;6.432;2023-04-01T12:10:37;4.40;;;1.88;;
37087;SDS011;23002;52.676;6.432;2023-04-01T12:18:23;5.85;;;2.70;;
37087;SDS011;23002;52.676;6.432;2023-04-01T12:21:01;5.28;;;2.70;;
37087;SDS011;23002;52.676;6.432;2023-04-01T12:23:37;3.90;;;2.20;;
37087;SDS011;23002;52.676;6.432;2023-04-01T12:26:12;3.70;;;2.10;;
37087;SDS011;23002;52.676;6.432;2023-04-01T12:33:57;4.15;;;2.28;;
37087;SDS011;23002;52.676;6.432;2023-04-01T12:39:29;5.72;;;2.35;;
37087;SDS011;23002;52.676;6.432;2023-04-01T12:42:04;5.72;;;2.53;;
37087;SDS011;23002;52.676;6.432;2023-04-01T12:44:55;4.10;;;2.10;;
37087;SDS011;23002;52.676;6.432;2023-04-01T12:47:39;3.17;;;1.90;;
37087;SDS011;23002;52.676;6.432;2023-04-01T12:55:12;3.67;;;1.58;;
37087;SDS011;23002;52.676;6.432;2023-04-01T12:58:04;3.83;;;1.58;;
37087;SDS011;23002;52.676;6.432;2023-04-01T13:00:39;3.50;;;1.90;;
37087;SDS011;23002;52.676;6.432;2023-04-01T13:06:01;3.10;;;1.60;;
37087;SDS011;23002;52.676;6.432;2023-04-01T13:08:39;4.50;;;1.67;;
37087;SDS011;23002;52.676;6.432;2023-04-01T13:11:23;3.45;;;1.98;;
37087;SDS011;23002;52.676;6.432;2023-04-01T13:14:15;2.85;;;1.63;;
37087;SDS011;23002;52.676;6.432;2023-04-01T13:19:31;2.53;;;1.17;;
37087;SDS011;23002;52.676;6.432;2023-04-01T13:27:37;2.47;;;1.35;;
37087;SDS011;23002;52.676;6.432;2023-04-01T13:30:02;3.47;;;1.38;;
37087;SDS011;23002;52.676;6.432;2023-04-01T13:32:50;2.70;;;1.52;;
37087;SDS011;23002;52.676;6.432;2023-04-01T13:35:21;4.15;;;1.80;;
37087;SDS011;23002;52.676;6.432;2023-04-01T13:40:33;3.17;;;1.65;;
37087;SDS011;23002;52.676;6.432;2023-04-01T13:43:57;4.60;;;1.67;;
37087;SDS011;23002;52.676;6.432;2023-04-01T13:46:12;5.35;;;1.60;;
37087;SDS011;23002;52.676;6.432;2023-04-01T13:51:18;3.63;;;1.73;;
37087;SDS011;23002;52.676;6.432;2023-04-01T13:53:56;3.72;;;1.80;;
37087;SDS011;23002;52.676;6.432;2023-04-01T14:04:27;3.17;;;1.52;;
37087;SDS011;23002;52.676;6.432;2023-04-01T14:06:59;3.15;;;1.30;;
37087;SDS011;23002;52.676;6.432;2023-04-01T14:09:31;2.90;;;1.45;;
37087;SDS011;23002;52.676;6.432;2023-04-01T14:12:09;3.05;;;1.73;;
37087;SDS011;23002;52.676;6.432;2023-04-01T14:14:53;1.75;;;0.98;;
37087;SDS011;23002;52.676;6.432;2023-04-01T14:25:20;3.83;;;1.85;;
37087;SDS011;23002;52.676;6.432;2023-04-01T14:27:51;2.60;;;1.45;;
37087;SDS011;23002;52.676;6.432;2023-04-01T14:30:31;4.07;;;1.77;;
37087;SDS011;23002;52.676;6.432;2023-04-01T14:33:23;3.60;;;1.50;;
37087;SDS011;23002;52.676;6.432;2023-04-01T14:36:01;2.97;;;1.50;;
37087;SDS011;23002;52.676;6.432;2023-04-01T14:43:47;4.20;;;1.83;;
37087;SDS011;23002;52.676;6.432;2023-04-01T14:46:23;3.15;;;1.75;;
37087;SDS011;23002;52.676;6.432;2023-04-01T14:51:40;3.80;;;2.00;;
37087;SDS011;23002;52.676;6.432;2023-04-01T14:56:41;3.00;;;1.80;;
37087;SDS011;23002;52.676;6.432;2023-04-01T14:59:30;3.30;;;1.75;;
37087;SDS011;23002;52.676;6.432;2023-04-01T15:09:49;4.15;;;1.83;;
37087;SDS011;23002;52.676;6.432;2023-04-01T15:12:24;4.13;;;2.08;;
37087;SDS011;23002;52.676;6.432;2023-04-01T15:17:40;3.53;;;1.45;;
37087;SDS011;23002;52.676;6.432;2023-04-01T15:20:29;2.97;;;1.58;;
37087;SDS011;23002;52.676;6.432;2023-04-01T15:23:11;3.85;;;1.80;;
37087;SDS011;23002;52.676;6.432;2023-04-01T15:30:59;2.72;;;1.48;;
37087;SDS011;23002;52.676;6.432;2023-04-01T15:33:31;5.55;;;1.80;;
37087;SDS011;23002;52.676;6.432;2023-04-01T15:41:11;2.97;;;1.50;;
37087;SDS011;23002;52.676;6.432;2023-04-01T15:43:45;3.47;;;1.70;;
37087;SDS011;23002;52.676;6.432;2023-04-01T15:56:21;6.68;;;1.83;;
37087;SDS011;23002;52.676;6.432;2023-04-01T15:59:05;2.72;;;1.50;;
37087;SDS011;23002;52.676;6.432;2023-04-01T16:01:38;3.50;;;1.88;;
37087;SDS011;23002;52.676;6.432;2023-04-01T16:17:22;2.45;;;1.20;;
37087;SDS011;23002;52.676;6.432;2023-04-01T16:22:29;2.80;;;1.55;;
37087;SDS011;23002;52.676;6.432;2023-04-01T16:25:14;2.70;;;1.38;;
37087;SDS011;23002;52.676;6.432;2023-04-01T16:32:57;4.50;;;2.15;;
37087;SDS011;23002;52.676;6.432;2023-04-01T16:41:10;3.15;;;1.50;;
37087;SDS011;23002;52.676;6.432;2023-04-01T16:43:48;2.17;;;1.17;;
37087;SDS011;23002;52.676;6.432;2023-04-01T16:46:38;1.90;;;1.20;;
37087;SDS011;23002;52.676;6.432;2023-04-01T16:56:55;2.15;;;1.30;;
37087;SDS011;23002;52.676;6.432;2023-04-01T16:59:24;2.97;;;1.70;;
37087;SDS011;23002;52.676;6.432;2023-04-01T17:09:30;3.17;;;1.50;;
37087;SDS011;23002;52.676;6.432;2023-04-01T17:14:36;2.88;;;1.60;;
37087;SDS011;23002;52.676;6.432;2023-04-01T17:17:23;1.95;;;1.33;;
37087;SDS011;23002;52.676;6.432;2023-04-01T17:25:09;2.42;;;1.70;;
37087;SDS011;23002;52.676;6.432;2023-04-01T17:32:56;2.88;;;1.20;;
37087;SDS011;23002;52.676;6.432;2023-04-01T17:35:33;2.65;;;1.60;;
37087;SDS011;23002;52.676;6.432;2023-04-01T17:45:57;3.42;;;1.80;;
37087;SDS011;23002;52.676;6.432;2023-04-01T17:48:49;3.55;;;1.92;;
37087;SDS011;23002;52.676;6.432;2023-04-01T17:51:28;2.83;;;1.90;;
37087;SDS011;23002;52.676;6.432;2023-04-01T17:56:35;4.18;;;2.00;;
37087;SDS011;23002;52.676;6.432;2023-04-01T17:59:16;4.50;;;2.28;;
37087;SDS011;23002;52.676;6.432;2023-04-01T18:01:46;3.58;;;2.33;;
37087;SDS011;23002;52.676;6.432;2023-04-01T18:10:04;4.78;;;2.80;;
37087;SDS011;23002;52.676;6.432;2023-04-01T18:17:57;7.15;;;3.67;;
37087;SDS011;23002;52.676;6.432;2023-04-01T18:25:32;6.00;;;3.35;;
37087;SDS011;23002;52.676;6.432;2023-04-01T18:30:55;7.35;;;3.80;;
37087;SDS011;23002;52.676;6.432;2023-04-01T18:33:25;5.18;;;2.72;;
37087;SDS011;23002;52.676;6.432;2023-04-01T18:38:31;3.97;;;2.25;;
37087;SDS011;23002;52.676;6.432;2023-04-01T18:46:21;5.50;;;2.65;;
37087;SDS011;23002;52.676;6.432;2023-04-01T18:56:14;4.22;;;2.20;;
37087;SDS011;23002;52.676;6.432;2023-04-01T18:59:03;4.78;;;2.10;;
37087;SDS011;23002;52.676;6.432;2023-04-01T19:01:40;4.43;;;2.28;;
37087;SDS011;23002;52.676;6.432;2023-04-01T19:06:53;4.30;;;2.67;;
37087;SDS011;23002;52.676;6.432;2023-04-01T19:11:52;5.30;;;2.55;;
37087;SDS011;23002;52.676;6.432;2023-04-01T19:14:28;4.78;;;2.30;;
37087;SDS011;23002;52.676;6.432;2023-04-01T19:19:41;6.15;;;3.33;;
37087;SDS011;23002;52.676;6.432;2023-04-01T19:27:42;5.72;;;2.65;;
37087;SDS011;23002;52.676;6.432;2023-04-01T19:30:14;7.63;;;2.97;;
37087;SDS011;23002;52.676;6.432;2023-04-01T19:32:49;7.78;;;3.28;;
37087;SDS011;23002;52.676;6.432;2023-04-01T19:35:23;6.40;;;3.00;;
37087;SDS011;23002;52.676;6.432;2023-04-01T19:40:51;8.50;;;3.83;;
37087;SDS011;23002;52.676;6.432;2023-04-01T19:46:14;7.38;;;3.42;;
37087;SDS011;23002;52.676;6.432;2023-04-01T19:48:43;6.70;;;3.50;;
37087;SDS011;23002;52.676;6.432;2023-04-01T19:51:20;7.47;;;3.70;;
37087;SDS011;23002;52.676;6.432;2023-04-01T19:53:59;7.47;;;3.80;;
37087;SDS011;23002;52.676;6.432;2023-04-01T19:56:33;9.40;;;3.75;;
37087;SDS011;23002;52.676;6.432;2023-04-01T20:01:38;8.02;;;3.60;;
37087;SDS011;23002;52.676;6.432;2023-04-01T20:04:13;9.75;;;4.35;;
37087;SDS011;23002;52.676;6.432;2023-04-01T20:06:59;9.85;;;4.90;;
37087;SDS011;23002;52.676;6.432;2023-04-01T20:12:09;9.43;;;3.97;;
37087;SDS011;23002;52.676;6.432;2023-04-01T20:14:47;7.32;;;4.10;;
37087;SDS011;23002;52.676;6.432;2023-04-01T20:17:17;8.20;;;3.75;;
37087;SDS011;23002;52.676;6.432;2023-04-01T20:19:57;9.10;;;4.55;;
37087;SDS011;23002;52.676;6.432;2023-04-01T20:25:23;11.02;;;4.18;;
37087;SDS011;23002;52.676;6.432;2023-04-01T20:30:26;7.82;;;3.67;;
37087;SDS011;23002;52.676;6.432;2023-04-01T20:35:44;9.77;;;4.38;;
37087;SDS011;23002;52.676;6.432;2023-04-01T20:40:57;7.40;;;3.97;;
37087;SDS011;23002;52.676;6.432;2023-04-01T20:43:40;9.15;;;4.15;;
37087;SDS011;23002;52.676;6.432;2023-04-01T20:46:20;9.43;;;5.15;;
37087;SDS011;23002;52.676;6.432;2023-04-01T20:48:57;7.15;;;3.88;;
37087;SDS011;23002;52.676;6.432;2023-04-01T20:51:37;7.93;;;4.40;;
37087;SDS011;23002;52.676;6.432;2023-04-01T20:54:12;8.68;;;4.45;;
37087;SDS011;23002;52.676;6.432;2023-04-01T21:04:22;9.27;;;4.25;;
37087;SDS011;23002;52.676;6.432;2023-04-01T21:17:32;11.65;;;4.70;;
37087;SDS011;23002;52.676;6.432;2023-04-01T21:20:13;9.75;;;5.22;;
37087;SDS011;23002;52.676;6.432;2023-04-01T21:25:26;10.88;;;4.68;;
37087;SDS011;23002;52.676;6.432;2023-04-01T21:35:54;7.28;;;4.47;;
37087;SDS011;23002;52.676;6.432;2023-04-01T21:41:08;8.35;;;4.30;;
37087;SDS011;23002;52.676;6.432;2023-04-01T22:00:00;12.15;;;4.97;;
37087;SDS011;23002;52.676;6.432;2023-04-01T22:02:55;10.95;;;5.13;;
37087;SDS011;23002;52.676;6.432;2023-04-01T22:05:35;9.55;;;4.63;;
37087;SDS011;23002;52.676;6.432;2023-04-01T22:13:20;9.93;;;4.75;;
37087;SDS011;23002;52.676;6.432;2023-04-01T22:18:48;8.88;;;4.80;;
37087;SDS011;23002;52.676;6.432;2023-04-01T22:21:21;14.85;;;5.15;;
37087;SDS011;23002;52.676;6.432;2023-04-01T22:23:52;10.40;;;4.70;;
37087;SDS011;23002;52.676;6.432;2023-04-01T22:28:59;6.53;;;4.03;;
37087;SDS011;23002;52.676;6.432;2023-04-01T22:34:25;10.98;;;5.03;;
37087;SDS011;23002;52.676;6.432;2023-04-01T22:39:45;9.57;;;4.13;;
37087;SDS011;23002;52.676;6.432;2023-04-01T22:42:34;8.95;;;5.05;;
37087;SDS011;23002;52.676;6.432;2023-04-01T22:47:54;14.20;;;4.90;;
37087;SDS011;23002;52.676;6.432;2023-04-01T22:52:56;8.88;;;3.80;;
37087;SDS011;23002;52.676;6.432;2023-04-01T22:55:30;8.85;;;4.10;;
37087;SDS011;23002;52.676;6.432;2023-04-01T22:58:01;8.07;;;4.63;;
37087;SDS011;23002;52.676;6.432;2023-04-01T23:00:37;8.25;;;4.15;;
37087;SDS011;23002;52.676;6.432;2023-04-01T23:03:20;8.80;;;3.80;;
37087;SDS011;23002;52.676;6.432;2023-04-01T23:05:55;9.27;;;4.43;;
37087;SDS011;23002;52.676;6.432;2023-04-01T23:11:09;11.07;;;4.32;;
37087;SDS011;23002;52.676;6.432;2023-04-01T23:13:44;8.97;;;4.30;;
37087;SDS011;23002;52.676;6.432;2023-04-01T23:16:14;9.90;;;4.32;;
37087;SDS011;23002;52.676;6.432;2023-04-01T23:18:48;7.00;;;4.55;;
37087;SDS011;23002;52.676;6.432;2023-04-01T23:21:35;8.73;;;4.03;;
37087;SDS011;23002;52.676;6.432;2023-04-01T23:26:55;13.82;;;4.03;;
37087;SDS011;23002;52.676;6.432;2023-04-01T23:29:26;9.38;;;3.80;;
37087;SDS011;23002;52.676;6.432;2023-04-01T23:32:00;9.05;;;4.22;;
37087;SDS011;23002;52.676;6.432;2023-04-01T23:34:28;8.32;;;3.90;;
37087;SDS011;23002;52.676;6.432;2023-04-01T23:37:18;10.23;;;4.20;;
37087;SDS011;23002;52.676;6.432;2023-04-01T23:39:45;6.38;;;3.33;;
37087;SDS011;23002;52.676;6.432;2023-04-01T23:42:22;6.95;;;3.83;;
37087;SDS011;23002;52.676;6.432;2023-04-01T23:44:51;14.50;;;3.90;;
37087;SDS011;23002;52.676;6.432;2023-04-01T23:47:33;9.40;;;4.05;;
37087;SDS011;23002;52.676;6.432;2023-04-01T23:50:01;6.65;;;3.25;;
37087;SDS011;23002;52.676;6.432;2023-04-01T23:52:30;10.15;;;4.05;;
37087;SDS011;23002;52.676;6.432;2023-04-01T23:54:59;10.02;;;4.70;;
37087;SDS011;23002;52.676;6.432;2023-04-01T23:57:33;9.80;;;4.25;;
